Airfield :
LOGIN :

Register | Disclaimer

   EN    FR    IT 

 










Legend :    VFR   Marginal VFR   IFR   Intensive IFR   Very Intensive IFR
Visi :
Ceiling :
>= 8 km
>= 3000ft
5 to 8 km
1000 to 3000 ft
1500m to 5 km
500 to 1000 ft
800 to 1500m
200 to 500 ft
< 800m
< 200 ft
Symbols :   Thunderstorms  Fog  Heavy snow  Heavy precipitations  Wind > 20 kt
SIGMETs :     Misc.  Thunderstorms  Icing  Turbulence  Mountain Waves  Volcanic Ashes






- Airport Elevation : 209 ft
- IATA code : CLY


LFKC - Calvi

CURRENT METAR :
  • 052000Z AUTO 00000KT CAVOK 22/19 Q1015 NOSIG

EXPIRED METARs :
  • 051930Z AUTO 01001KT CAVOK 23/20 Q1014 NOSIG
  • 051900Z AUTO 35003KT 9999 FEW006 24/20 Q1014 NOSIG
  • 051830Z AUTO 36003KT 350V050 9999 NSC 24/20 Q1014 NOSIG
  • 051800Z AUTO 35004KT 330V040 CAVOK 25/20 Q1014 NOSIG
  • 051730Z AUTO 01005KT CAVOK 26/20 Q1014 NOSIG

TAF TAF LFKC
Valid from the 05 at 15:00 until the 06 at 15:00 UTC


051400Z 0515/0615 35010KT CAVOK TX31/0611Z TN19/0604Z
BECMG 0518/0520 18004KT
BECMG 0606/0608 36010KT
ATIS : +33 4 95 65 82 49



MET'MAP, your aeronautical weather chart ! - Copyright ORBIFLY December 2007 - Disclaimer

ORBIFLY MET'MAP TEAM :

Programming & Development : Alexandra Zaïnal
Concept & original design : Baudouin d'Aumeries
Assistance for programming : Marc-Olivier Méhu
Technical & hardware support : Manuel Goepfert

Contact : metmap@orbifly.com




SOURCES & CREDITS :

   NOAA